CZFA

Details ICAO CZFA (ZFA)
Name FARO
Region Canada
Timezone America/Whitehorse (UTC-8.0)
Plans Departing 5
Arriving 9
Stats Elevation 2,351 ft / 717 m (AMSL)
Location 62.207498° -133.375840°
Runways 1
Magnetic Variation 20.224° E
Sunrise 2017-12-12 18:12:24 UTC / 2017-12-12 10:12:24 Local
Sunset 2017-12-12 23:25:16 UTC / 2017-12-12 15:25:16 Local
Advertisement - Login to hide

Runways

ID Width Length Bearing (true) Bearing (mag) Surface Threshold Offset Overrun Length
09 100 ft / 30 m 4,027 ft / 1,227 m 113.76° 93.54° Gravel 0 ft / 0 m 0 ft / 0 m
27 100 ft / 30 m 4,027 ft / 1,227 m 293.78° 273.56° Gravel 0 ft / 0 m 0 ft / 0 m

Map

Weather


0- 5 10 15 20 25 30 35+ Temperature / ° C

Clouds and Precipitation
Forecast for 2017-12-13 06:00 UTC. Updated 2 hours ago

Ground ~20,000 ft ~40,000 ft Winds

METAR

Not found

TAF

TAF CZFA 121742Z 1218/1223 12005KT P6SM SCT050 OVC080 TEMPO 1218/1222 3SM -SHSN BR FEW020 OVC050 FM122200 VRB03KT P6SM FEW120 RMK NXT FCST WILL BE ISSUED AT 131645Z

Frequencies

Unicom 122.10 MHz MANDATORY FREQ
Warning: Do not use this data for real-world aviation or navigation. No guarantee of current accuracy is given.